Time;durP1;ratioP1;P1;durP2;ratioP2;P2;SDS_P1;SDS_P2;PMS_P1;PMS_P2;Temp;Humidity;BMP_temperature;BMP_pressure;BME280_temperature;BME280_humidity;BME280_pressure;Samples;Min_cycle;Max_cycle;Signal;HPM_P1;HPM_P2
2022/12/20 00:00:52;;;;;;;;;5.25;4.25;;;;;13.74;61.81;101180.72;4938793;28;45415;-78
2022/12/20 00:03:19;;;;;;;;;5.50;5.50;;;;;13.75;61.92;101185.16;4929049;28;46680;-78
2022/12/20 00:05:45;;;;;;;;;7.00;7.00;;;;;13.74;62.07;101167.50;4936156;28;45475;-77
2022/12/20 00:08:10;;;;;;;;;10.50;9.00;;;;;13.75;61.83;101178.09;4938709;28;45498;-77
2022/12/20 00:10:37;;;;;;;;;6.50;6.00;;;;;13.70;62.37;101165.78;4925755;28;45406;-77
2022/12/20 00:13:03;;;;;;;;;7.00;6.25;;;;;13.70;62.38;101166.66;4939844;28;45663;-77
2022/12/20 00:15:30;;;;;;;;;6.75;6.75;;;;;13.65;62.19;101161.41;4937461;28;47331;-78
2022/12/20 00:17:56;;;;;;;;;5.00;4.75;;;;;13.65;62.56;101153.47;4939646;28;45374;-78
2022/12/20 00:20:21;;;;;;;;;6.25;5.25;;;;;13.63;62.45;101152.63;4940344;28;45353;-78
2022/12/20 00:22:47;;;;;;;;;7.50;6.50;;;;;13.59;62.55;101150.03;4939355;28;45667;-78
2022/12/20 00:25:12;;;;;;;;;5.25;5.25;;;;;13.60;62.99;101155.28;4935495;28;45438;-78
2022/12/20 00:27:37;;;;;;;;;7.00;7.00;;;;;13.58;63.23;101156.19;4929592;28;45446;-78
2022/12/20 00:30:04;;;;;;;;;9.75;7.75;;;;;13.57;62.98;101165.03;4937986;28;45867;-79
2022/12/20 00:32:29;;;;;;;;;9.75;6.00;;;;;13.55;63.11;101150.94;4938334;28;45649;-78
2022/12/20 00:34:54;;;;;;;;;8.25;7.00;;;;;13.57;63.40;101152.66;4936149;28;45546;-81
2022/12/20 00:37:20;;;;;;;;;7.00;7.00;;;;;13.56;63.26;101135.06;4933401;28;45500;-77
2022/12/20 00:39:45;;;;;;;;;8.00;7.00;;;;;13.55;63.32;101138.59;4931341;28;45779;-78
2022/12/20 00:42:11;;;;;;;;;6.00;6.00;;;;;13.55;63.74;101138.59;4922280;28;45374;-78
2022/12/20 00:44:36;;;;;;;;;8.00;7.50;;;;;13.52;63.46;101127.16;4921540;28;45552;-78
2022/12/20 00:47:01;;;;;;;;;3.75;3.75;;;;;13.55;63.60;101133.31;4921580;28;45401;-78
2022/12/20 00:49:27;;;;;;;;;8.00;7.00;;;;;13.54;63.80;101120.97;4919183;28;45507;-78
2022/12/20 00:51:52;;;;;;;;;3.75;3.50;;;;;13.55;63.79;101128.03;4932401;28;45266;-78
2022/12/20 00:54:18;;;;;;;;;4.75;3.75;;;;;13.56;63.57;101124.47;4941015;28;46211;-78
2022/12/20 00:56:43;;;;;;;;;5.25;4.00;;;;;13.57;63.67;101130.63;4941105;28;45313;-78
2022/12/20 00:59:09;;;;;;;;;5.00;4.00;;;;;13.56;63.88;101124.47;4941299;28;45397;-78
2022/12/20 01:01:34;;;;;;;;;6.00;5.00;;;;;13.60;63.73;101118.25;4956417;28;45322;-78
2022/12/20 01:04:00;;;;;;;;;5.75;3.75;;;;;13.59;63.82;101111.22;4939860;28;47597;-78
2022/12/20 01:06:27;;;;;;;;;8.50;6.75;;;;;13.63;63.53;101123.53;4940311;28;45263;-78
2022/12/20 01:08:54;;;;;;;;;6.75;5.00;;;;;13.60;63.64;101114.72;4941382;28;45554;-78
2022/12/20 01:11:24;;;;;;;;;4.33;4.33;;;;;13.66;63.81;101123.50;4939843;28;45529;-78
2022/12/20 01:13:53;;;;;;;;;3.67;3.00;;;;;13.64;63.69;101116.47;4940960;28;45367;-78
2022/12/20 01:16:21;;;;;;;;;4.33;4.33;;;;;13.70;63.35;101126.09;4952695;28;46104;-78
2022/12/20 01:18:48;;;;;;;;;7.00;6.50;;;;;13.68;63.64;101115.53;4920721;28;45329;-78
2022/12/20 01:21:15;;;;;;;;;3.33;3.33;;;;;13.72;63.73;101114.63;4922032;28;45404;-78
2022/12/20 01:23:41;;;;;;;;;5.00;4.00;;;;;13.74;63.43;101118.13;4921619;28;45409;-78
2022/12/20 01:26:09;;;;;;;;;4.00;4.00;;;;;13.77;63.70;101131.31;4928907;28;45195;-78
2022/12/20 01:28:37;;;;;;;;;9.75;4.75;;;;;13.76;63.40;101111.03;4956249;28;45442;-78
2022/12/20 01:31:10;;;;;;;;;3.50;3.50;;;;;13.82;63.10;101121.56;4932400;28;45271;-78
2022/12/20 01:33:35;;;;;;;;;5.33;5.33;;;;;13.79;63.23;101116.31;4959499;28;48290;-78
2022/12/20 01:36:05;;;;;;;;;4.00;3.00;;;;;13.80;63.33;101106.59;4930507;28;45345;-78
2022/12/20 01:38:31;;;;;;;;;4.25;3.50;;;;;13.82;62.99;101107.44;4925496;28;45412;-78
2022/12/20 01:40:56;;;;;;;;;6.00;5.00;;;;;13.82;63.35;101115.38;4926356;28;45255;-78
2022/12/20 01:43:24;;;;;;;;;5.00;3.33;;;;;13.87;62.90;101122.38;4955864;28;46495;-78
2022/12/20 01:45:50;;;;;;;;;4.00;3.00;;;;;13.85;63.04;101116.22;4937852;28;45532;-78
2022/12/20 01:48:23;;;;;;;;;4.25;4.25;;;;;13.85;63.12;101125.94;4925148;28;45329;-78
2022/12/20 01:50:50;;;;;;;;;3.75;2.50;;;;;13.82;63.16;101104.78;4938850;28;45467;-78
2022/12/20 01:53:19;;;;;;;;;6.00;4.33;;;;;13.80;62.76;101104.81;4934559;28;45338;-78
2022/12/20 01:55:46;;;;;;;;;4.00;4.00;;;;;13.85;63.18;101124.16;4940717;28;45327;-78
2022/12/20 01:58:13;;;;;;;;;3.00;3.00;;;;;13.81;63.00;101124.22;4955714;28;45517;-78
2022/12/20 02:00:38;;;;;;;;;3.00;3.00;;;;;13.83;62.94;101128.59;4954389;28;45365;-78
2022/12/20 02:03:07;;;;;;;;;6.33;5.00;;;;;13.85;62.77;101134.75;4942584;28;47279;-78
2022/12/20 02:05:38;;;;;;;;;4.50;3.75;;;;;13.86;63.16;101125.03;4943950;28;45424;-78
2022/12/20 02:08:05;;;;;;;;;4.33;4.33;;;;;13.84;62.92;101121.53;4944044;28;45273;-78
2022/12/20 02:10:55;;;;;;;;;5.00;4.00;;;;;13.90;62.60;101130.28;4943520;28;45431;-78
2022/12/20 02:13:55;;;;;;;;;5.25;4.25;;;;;13.82;63.14;101120.66;4943678;28;45282;-78
2022/12/20 02:16:28;;;;;;;;;3.00;3.00;;;;;13.83;62.73;101130.38;4942172;28;45391;-78
2022/12/20 02:19:29;;;;;;;;;3.67;3.00;;;;;13.85;62.91;101137.41;4938051;28;45372;-78
2022/12/20 02:22:07;;;;;;;;;3.00;3.00;;;;;13.83;62.66;101139.19;4940168;28;46321;-78
2022/12/20 02:24:50;;;;;;;;;2.67;2.67;;;;;13.82;62.85;101133.91;4942213;28;47135;-78
2022/12/20 02:27:41;;;;;;;;;7.00;6.50;;;;;13.80;62.33;101136.56;4932761;28;45173;-78
2022/12/20 02:30:34;;;;;;;;;4.00;4.00;;;;;13.74;62.39;101114.56;4938156;28;45255;-78
2022/12/20 02:33:07;;;;;;;;;4.00;4.00;;;;;13.72;62.45;101116.38;4923782;28;45865;-78
2022/12/20 02:35:35;;;;;;;;;5.75;5.00;;;;;13.73;62.32;101116.34;4930051;28;47484;-78
2022/12/20 02:38:22;;;;;;;;;3.75;3.00;;;;;13.70;62.75;101111.09;4924298;28;45513;-78
2022/12/20 02:40:52;;;;;;;;;5.75;4.75;;;;;13.69;62.68;101106.72;4923606;28;45227;-78
2022/12/20 02:46:07;;;;;;;;;5.00;4.00;;;;;13.67;62.67;101101.41;4922976;28;45502;-78
2022/12/20 02:48:36;;;;;;;;;4.75;4.50;;;;;13.65;62.04;101089.97;4924003;28;45250;-78
2022/12/20 02:51:05;;;;;;;;;4.00;3.67;;;;;13.67;62.56;101092.63;4928116;28;45184;-78
2022/12/20 02:53:31;;;;;;;;;5.00;5.00;;;;;13.67;62.31;101076.75;4943509;28;45492;-78
2022/12/20 02:56:03;;;;;;;;;3.00;3.00;;;;;13.63;62.13;101067.06;4975703;28;47005;-78
2022/12/20 02:58:37;;;;;;;;;7.50;6.75;;;;;13.58;62.15;101068.88;4950323;28;45463;-78
2022/12/20 03:01:07;;;;;;;;;5.00;5.00;;;;;13.54;62.60;101085.69;4931133;28;45324;-78
2022/12/20 03:03:34;;;;;;;;;3.00;3.00;;;;;13.51;62.25;101070.75;4961082;28;45549;-78
2022/12/20 03:06:00;;;;;;;;;4.00;4.00;;;;;13.48;62.29;101059.31;4954623;28;46415;-78
2022/12/20 03:08:25;;;;;;;;;3.50;3.50;;;;;13.48;61.92;101061.97;4954224;28;46885;-78
2022/12/20 03:10:53;;;;;;;;;5.00;4.00;;;;;13.50;62.34;101065.44;4950844;28;45510;-78
2022/12/20 03:13:19;;;;;;;;;5.67;4.67;;;;;13.45;62.58;101066.41;4947909;28;45357;-78
2022/12/20 03:15:44;;;;;;;;;2.33;2.33;;;;;13.42;62.01;101058.50;4954199;28;48182;-78
2022/12/20 03:18:10;;;;;;;;;2.67;2.67;;;;;13.42;62.28;101062.91;4941616;28;45414;-78
2022/12/20 03:20:35;;;;;;;;;4.00;3.00;;;;;13.43;62.01;101059.38;4945229;28;45439;-78
2022/12/20 03:23:01;;;;;;;;;4.33;4.33;;;;;13.43;62.19;101059.38;4930053;28;45397;-78
2022/12/20 03:25:27;;;;;;;;;3.33;2.33;;;;;13.38;62.09;101064.69;4954503;28;47211;-78
2022/12/20 03:27:52;;;;;;;;;3.67;3.00;;;;;13.39;62.17;101058.53;4936384;28;45302;-78
2022/12/20 03:30:18;;;;;;;;;3.67;3.67;;;;;13.39;62.32;101060.28;4930200;28;45304;-78
2022/12/20 03:32:43;;;;;;;;;3.00;3.00;;;;;13.33;62.53;101048.00;4929905;28;45210;-78
2022/12/20 03:35:09;;;;;;;;;3.67;3.67;;;;;13.36;62.52;101049.72;4940032;28;45238;-78
2022/12/20 03:37:35;;;;;;;;;3.33;3.33;;;;;13.33;62.45;101057.69;4929746;28;45187;-78
2022/12/20 03:40:00;;;;;;;;;3.00;2.67;;;;;13.35;62.37;101066.50;4938421;28;45275;-78
2022/12/20 03:42:26;;;;;;;;;5.00;5.00;;;;;13.30;62.33;101055.97;4950746;28;45254;-78
2022/12/20 03:44:51;;;;;;;;;4.67;3.67;;;;;13.31;62.11;101046.25;4921859;28;47707;-78
2022/12/20 03:47:16;;;;;;;;;4.00;3.00;;;;;13.28;62.35;101049.81;4934874;28;46019;-77
2022/12/20 03:49:42;;;;;;;;;4.67;3.00;;;;;13.31;62.50;101068.31;4934993;28;45461;-78
2022/12/20 03:52:11;;;;;;;;;3.67;1.00;;;;;13.25;62.30;101039.22;4922304;28;45366;-78
2022/12/20 03:54:36;;;;;;;;;4.00;3.33;;;;;13.25;61.99;101048.03;4941138;28;47482;-78
2022/12/20 03:57:02;;;;;;;;;3.33;3.33;;;;;13.24;62.38;101037.50;4942253;28;45253;-78
2022/12/20 03:59:27;;;;;;;;;3.33;2.00;;;;;13.18;62.19;101038.44;4923410;28;45282;-79
2022/12/20 04:01:53;;;;;;;;;3.00;3.00;;;;;13.25;62.15;101055.97;4951862;28;45178;-78
2022/12/20 04:04:18;;;;;;;;;5.00;4.00;;;;;13.24;62.14;101050.72;4934979;28;45913;-79
2022/12/20 04:06:43;;;;;;;;;3.00;1.67;;;;;13.24;61.90;101038.34;4935505;28;45256;-78
2022/12/20 04:09:09;;;;;;;;;3.25;3.25;;;;;13.24;62.01;101026.91;4950235;28;45458;-79
2022/12/20 04:11:35;;;;;;;;;3.67;3.67;;;;;13.23;61.86;101041.91;4935886;28;45181;-78
2022/12/20 04:14:00;;;;;;;;;4.67;3.67;;;;;13.16;61.99;101024.34;4922904;28;46430;-78
2022/12/20 04:16:27;;;;;;;;;2.00;2.00;;;;;13.18;62.00;101027.84;4933127;28;45265;-77
2022/12/20 04:18:53;;;;;;;;;3.00;3.00;;;;;13.19;62.07;101026.94;4936348;28;45484;-78
2022/12/20 04:21:24;;;;;;;;;4.00;3.25;;;;;13.15;61.65;101027.00;4946284;28;45359;-79
2022/12/20 04:23:50;;;;;;;;;3.00;3.00;;;;;13.17;62.27;101018.16;4935667;28;45405;-78
2022/12/20 04:26:16;;;;;;;;;3.75;3.75;;;;;13.20;62.18;101035.75;4946959;28;45231;-78
2022/12/20 04:28:41;;;;;;;;;5.00;3.00;;;;;13.20;62.13;101015.50;4948186;28;45496;-78
2022/12/20 04:31:06;;;;;;;;;2.33;1.33;;;;;13.19;62.28;101018.16;4940324;28;45826;-79
2022/12/20 04:33:32;;;;;;;;;3.00;3.00;;;;;13.21;61.83;101013.72;4928100;28;46190;-77
2022/12/20 04:35:58;;;;;;;;;3.00;3.00;;;;;13.18;61.67;101012.00;4928682;28;45401;-78
2022/12/20 04:38:23;;;;;;;;;4.67;4.67;;;;;13.21;61.78;101024.31;4941007;28;45263;-78
2022/12/20 04:40:50;;;;;;;;;2.75;2.75;;;;;13.19;61.73;101013.72;4921399;28;45269;-78
2022/12/20 04:43:17;;;;;;;;;4.67;4.67;;;;;13.17;61.91;101012.00;4934861;28;45451;-78
2022/12/20 04:45:43;;;;;;;;;3.00;2.00;;;;;13.23;62.08;101025.16;4922120;28;45289;-78
2022/12/20 04:48:10;;;;;;;;;2.33;2.33;;;;;13.19;61.86;101011.09;4922629;28;45532;-78
2022/12/20 04:50:35;;;;;;;;;3.00;2.00;;;;;13.21;61.85;101011.97;4922904;28;45263;-78
2022/12/20 04:55:45;;;;;;;;;2.00;2.00;;;;;13.19;61.70;101013.72;4941401;28;45244;-78
2022/12/20 04:58:10;;;;;;;;;4.75;2.75;;;;;13.17;61.66;101025.22;4956503;28;45232;-77
2022/12/20 05:00:36;;;;;;;;;3.33;2.00;;;;;13.23;61.69;101028.69;4939768;28;45645;-78
2022/12/20 05:03:01;;;;;;;;;5.75;4.25;;;;;13.23;61.82;101026.03;4940603;28;46971;-77
2022/12/20 05:05:27;;;;;;;;;3.00;3.00;;;;;13.19;62.06;101020.78;4943512;28;45237;-77
2022/12/20 05:07:52;;;;;;;;;1.33;1.33;;;;;13.25;61.80;101024.22;4944917;28;45458;-78
2022/12/20 05:10:18;;;;;;;;;2.67;2.00;;;;;13.27;61.80;101008.41;4940037;28;45554;-77
2022/12/20 05:12:44;;;;;;;;;1.00;1.00;;;;;13.25;61.88;100983.72;4949772;28;48115;-78
2022/12/20 05:15:11;;;;;;;;;2.00;2.00;;;;;13.28;61.87;100983.69;4942890;28;45466;-78
2022/12/20 05:17:36;;;;;;;;;1.00;1.00;;;;;13.28;61.87;100980.19;4943593;28;45349;-77
2022/12/20 05:20:03;;;;;;;;;4.67;4.67;;;;;13.34;61.44;100996.88;4929873;28;45466;-78
2022/12/20 05:27:57;;;;;;;;;1.00;1.00;;;;;13.40;61.48;100990.63;4941723;28;45279;-77
2022/12/20 05:30:23;;;;;;;;;2.33;2.00;;;;;13.38;61.69;100980.06;4936959;28;45226;-77
2022/12/20 05:32:49;;;;;;;;;3.00;2.33;;;;;13.39;61.39;100973.91;4938055;28;45647;-77
2022/12/20 05:35:14;;;;;;;;;2.00;2.00;;;;;13.45;61.36;100979.09;4933672;28;45250;-78
2022/12/20 05:37:40;;;;;;;;;3.33;3.00;;;;;13.41;61.52;100972.09;4943053;28;45253;-77
2022/12/20 05:40:07;;;;;;;;;3.00;2.00;;;;;13.45;61.72;100983.53;4959489;28;45160;-77
2022/12/20 05:42:32;;;;;;;;;2.00;2.00;;;;;13.46;61.18;100974.69;4946013;28;46803;-77
2022/12/20 05:44:57;;;;;;;;;1.67;1.67;;;;;13.46;61.55;100972.91;4955737;28;45999;-77
2022/12/20 05:47:23;;;;;;;;;2.33;2.33;;;;;13.43;61.34;100961.50;4936591;28;45744;-77
2022/12/20 05:49:49;;;;;;;;;2.00;2.00;;;;;13.47;61.22;100965.84;4944737;28;45482;-78
2022/12/20 05:52:14;;;;;;;;;1.00;1.00;;;;;13.45;61.37;100971.19;4925619;28;47803;-77
2022/12/20 05:54:40;;;;;;;;;4.33;1.33;;;;;13.53;61.42;100968.44;4934723;28;45426;-77
2022/12/20 05:57:05;;;;;;;;;3.00;3.00;;;;;13.54;60.94;100977.25;4937770;28;45410;-77
2022/12/20 05:59:30;;;;;;;;;5.00;4.00;;;;;13.50;61.23;100963.19;4933062;28;45429;-77
2022/12/20 06:01:56;;;;;;;;;3.67;3.00;;;;;13.56;61.44;100965.75;4941036;28;46277;-78
2022/12/20 06:04:21;;;;;;;;;5.00;5.00;;;;;13.60;61.53;100972.75;4935656;28;45424;-77
2022/12/20 06:06:47;;;;;;;;;3.33;2.33;;;;;13.58;60.99;100974.56;4937747;28;45282;-78
2022/12/20 06:09:12;;;;;;;;;2.00;2.00;;;;;13.62;60.81;100973.59;4944377;28;45306;-77
2022/12/20 06:11:37;;;;;;;;;2.33;2.33;;;;;13.62;61.02;100963.03;4937104;28;45773;-78
2022/12/20 06:14:03;;;;;;;;;1.00;1.00;;;;;13.58;61.27;100966.63;4932361;28;45246;-78
2022/12/20 06:16:29;;;;;;;;;2.00;2.00;;;;;13.60;60.97;100975.38;4941813;28;45216;-77
2022/12/20 06:18:55;;;;;;;;;4.00;4.00;;;;;13.62;60.83;100972.75;4937961;28;45182;-78
2022/12/20 06:21:21;;;;;;;;;3.00;3.00;;;;;13.64;60.99;100982.41;4924649;28;45269;-78
2022/12/20 06:23:46;;;;;;;;;6.25;5.50;;;;;13.60;61.09;100962.16;4924562;28;45347;-78
2022/12/20 06:26:12;;;;;;;;;2.67;2.67;;;;;13.65;61.28;100972.69;4923279;28;45524;-78
2022/12/20 06:28:41;;;;;;;;;4.33;2.00;;;;;13.69;60.86;100990.28;4940178;28;45622;-77
2022/12/20 06:31:08;;;;;;;;;3.00;3.00;;;;;13.71;60.99;100979.66;4929588;28;45684;-78
2022/12/20 06:33:34;;;;;;;;;2.00;1.00;;;;;13.72;60.89;100992.91;4935736;28;45223;-77
2022/12/20 06:36:00;;;;;;;;;3.00;3.00;;;;;13.68;60.75;100984.13;4939991;28;45463;-77
2022/12/20 06:38:25;;;;;;;;;3.00;3.00;;;;;13.72;60.75;100982.31;4942407;28;45244;-77
2022/12/20 06:40:50;;;;;;;;;5.00;2.67;;;;;13.69;60.61;100987.66;4937243;28;46264;-77
2022/12/20 06:43:16;;;;;;;;;2.00;2.00;;;;;13.66;60.84;100985.91;4930903;28;45286;-77
2022/12/20 06:45:41;;;;;;;;;2.00;2.00;;;;;13.68;60.78;100989.44;4939232;28;45227;-77
2022/12/20 06:48:07;;;;;;;;;2.00;2.00;;;;;13.69;60.80;100995.59;4942001;28;45615;-78
2022/12/20 06:50:32;;;;;;;;;1.00;1.00;;;;;13.72;60.59;100994.66;4942789;28;46150;-78
2022/12/20 06:52:58;;;;;;;;;2.00;2.00;;;;;13.73;60.79;100985.81;4924083;28;45344;-78
2022/12/20 06:55:23;;;;;;;;;4.33;4.00;;;;;13.72;61.03;100990.25;4923931;28;45408;-77
2022/12/20 06:57:48;;;;;;;;;3.67;3.67;;;;;13.73;60.46;100972.59;4929148;28;45493;-78
2022/12/20 07:00:15;;;;;;;;;3.00;2.00;;;;;13.73;60.71;100977.88;4957525;28;47037;-78
2022/12/20 07:02:41;;;;;;;;;3.00;3.00;;;;;13.75;60.72;100976.09;4941582;28;45262;-77
2022/12/20 07:05:06;;;;;;;;;2.25;2.25;;;;;13.75;60.38;100973.47;4943205;28;45496;-78
2022/12/20 07:07:32;;;;;;;;;3.33;3.33;;;;;13.79;60.45;100991.03;4922598;28;45491;-78
2022/12/20 07:09:58;;;;;;;;;1.67;1.00;;;;;13.75;60.39;100986.69;4936482;28;46294;-78
2022/12/20 07:12:23;;;;;;;;;4.00;3.33;;;;;13.74;60.41;100985.81;4941763;28;45211;-78
2022/12/20 07:14:49;;;;;;;;;3.00;3.00;;;;;13.79;60.70;100991.94;4935192;28;45330;-79
2022/12/20 07:17:14;;;;;;;;;5.67;5.00;;;;;13.80;60.41;100987.50;4941790;28;45562;-79
2022/12/20 07:19:41;;;;;;;;;4.33;2.67;;;;;13.76;60.42;100984.00;4931091;28;45218;-77
2022/12/20 07:22:06;;;;;;;;;3.67;3.00;;;;;13.79;60.32;100991.03;4956732;28;45195;-78
2022/12/20 07:24:32;;;;;;;;;4.00;4.00;;;;;13.74;60.16;100977.88;4930906;28;45409;-78
2022/12/20 07:26:57;;;;;;;;;3.33;3.33;;;;;13.74;60.50;100972.59;4924079;28;45622;-77
2022/12/20 07:29:24;;;;;;;;;6.00;4.00;;;;;13.76;60.26;100976.06;4940909;28;48092;-78
2022/12/20 07:31:50;;;;;;;;;2.00;2.00;;;;;13.76;60.41;100972.56;4944485;28;45484;-78
2022/12/20 07:34:15;;;;;;;;;2.33;2.33;;;;;13.79;60.28;100980.44;4930563;28;45312;-79
2022/12/20 07:36:41;;;;;;;;;2.00;1.00;;;;;13.78;60.32;100982.22;4923373;28;45333;-79
2022/12/20 07:39:07;;;;;;;;;1.33;1.00;;;;;13.76;60.42;100977.84;4923405;28;45651;-78
2022/12/20 07:41:32;;;;;;;;;2.00;2.00;;;;;13.74;60.03;100969.94;4923236;28;45201;-79
2022/12/20 07:43:58;;;;;;;;;4.00;3.00;;;;;13.76;60.51;100967.25;4947000;28;45271;-80
2022/12/20 07:46:24;;;;;;;;;2.00;2.00;;;;;13.82;60.24;100985.69;4936150;28;45270;-78
2022/12/20 07:48:49;;;;;;;;;2.00;2.00;;;;;13.81;60.06;100990.13;4921560;28;47601;-80
2022/12/20 07:51:20;;;;;;;;;2.67;2.00;;;;;13.76;60.13;100976.06;4921649;28;45834;-82
2022/12/20 07:53:56;;;;;;;;;3.00;3.00;;;;;13.82;60.49;100975.09;4935837;28;45519;-79
2022/12/20 07:56:22;;;;;;;;;1.33;1.00;;;;;13.80;60.27;100972.50;4931023;28;45518;-80
2022/12/20 07:58:52;;;;;;;;;3.00;3.00;;;;;13.77;60.14;100969.91;4938936;28;47321;-77
2022/12/20 08:01:20;;;;;;;;;1.67;1.67;;;;;13.80;60.25;100977.78;4940722;28;45497;-77
2022/12/20 08:03:52;;;;;;;;;3.67;3.33;;;;;13.79;59.85;100972.50;4937962;28;45458;-76
2022/12/20 08:06:17;;;;;;;;;2.00;2.00;;;;;13.80;60.38;100975.16;4932626;28;45335;-78
2022/12/20 08:08:48;;;;;;;;;4.25;3.25;;;;;13.83;59.90;100990.13;4956427;28;48462;-77
2022/12/20 08:11:15;;;;;;;;;4.00;2.00;;;;;13.82;60.00;100976.00;4931397;28;45183;-77
2022/12/20 08:13:41;;;;;;;;;1.00;1.00;;;;;13.82;59.94;100972.47;4921122;28;45200;-77
2022/12/20 08:16:07;;;;;;;;;4.33;4.00;;;;;13.84;59.89;100975.97;4948056;28;45431;-78
2022/12/20 08:18:32;;;;;;;;;3.00;2.00;;;;;13.83;60.11;100971.59;4925763;28;46396;-77
2022/12/20 08:20:57;;;;;;;;;2.33;2.33;;;;;13.84;60.06;100970.69;4922683;28;45467;-78
2022/12/20 08:23:23;;;;;;;;;5.00;4.00;;;;;13.88;60.10;100988.28;4922642;28;45422;-77
2022/12/20 08:25:49;;;;;;;;;2.00;2.00;;;;;13.85;59.79;100975.97;4927516;28;45509;-78
2022/12/20 08:28:14;;;;;;;;;1.00;1.00;;;;;13.88;59.93;100975.91;4952624;28;46215;-77
2022/12/20 08:30:39;;;;;;;;;3.67;3.00;;;;;13.89;59.92;100974.13;4932421;28;45448;-80
2022/12/20 08:33:05;;;;;;;;;2.00;2.00;;;;;13.96;59.70;100988.19;4938372;28;45352;-80
2022/12/20 08:35:30;;;;;;;;;3.50;3.50;;;;;13.92;59.63;100974.09;4939244;28;45367;-80
2022/12/20 08:37:56;;;;;;;;;2.75;2.75;;;;;13.95;59.82;100979.34;4927925;28;46235;-80
2022/12/20 08:40:21;;;;;;;;;2.75;2.50;;;;;13.90;60.11;100973.25;4932216;28;45457;-80
2022/12/20 08:42:47;;;;;;;;;6.25;3.00;;;;;13.90;59.88;100978.56;4936604;28;45273;-79
2022/12/20 08:45:13;;;;;;;;;4.33;4.00;;;;;13.91;59.53;100982.94;4936804;28;45250;-80
2022/12/20 08:47:38;;;;;;;;;4.67;2.33;;;;;13.96;59.87;100981.09;4949329;28;46120;-80
2022/12/20 08:50:04;;;;;;;;;3.00;3.00;;;;;13.95;59.57;100983.75;4931929;28;45454;-79
2022/12/20 08:52:30;;;;;;;;;2.00;2.00;;;;;13.94;59.80;100982.91;4955836;28;45288;-80
2022/12/20 08:54:55;;;;;;;;;2.00;2.00;;;;;13.93;59.79;100980.28;4936601;28;46097;-79
2022/12/20 08:57:21;;;;;;;;;4.33;4.33;;;;;13.92;59.70;100978.53;4949126;28;47680;-79
2022/12/20 08:59:46;;;;;;;;;2.67;2.67;;;;;13.95;59.44;100987.28;4931686;28;45180;-79
2022/12/20 09:02:12;;;;;;;;;3.67;3.00;;;;;13.91;59.42;100977.66;4952385;28;45318;-79
2022/12/20 09:04:37;;;;;;;;;4.00;4.00;;;;;13.95;59.31;100987.28;4930489;28;45565;-79
2022/12/20 09:07:03;;;;;;;;;4.00;2.67;;;;;13.94;59.74;100987.31;4928098;28;46055;-80
2022/12/20 09:09:28;;;;;;;;;2.00;2.00;;;;;13.97;59.72;100998.72;4930992;28;45490;-80
2022/12/20 09:11:54;;;;;;;;;3.00;3.00;;;;;13.93;59.54;100985.59;4953179;28;45435;-80
2022/12/20 09:14:20;;;;;;;;;3.25;2.50;;;;;13.96;59.30;100982.88;4930752;28;45431;-80
2022/12/20 09:16:46;;;;;;;;;4.00;3.00;;;;;13.95;59.79;100989.94;4936063;28;45576;-80
2022/12/20 09:19:13;;;;;;;;;2.00;2.00;;;;;13.94;59.59;100982.03;4952891;28;45676;-80
2022/12/20 09:21:38;;;;;;;;;3.33;2.00;;;;;13.98;60.08;100997.84;4949719;28;45273;-77
2022/12/20 09:24:05;;;;;;;;;3.33;3.00;;;;;13.93;60.39;100988.22;4942825;28;45320;-77
2022/12/20 09:26:31;;;;;;;;;4.00;4.00;;;;;13.94;60.29;100989.97;4932783;28;48324;-76
2022/12/20 09:28:57;;;;;;;;;4.00;4.00;;;;;13.88;60.82;100988.28;4938525;28;45842;-77
2022/12/20 09:31:24;;;;;;;;;3.33;3.33;;;;;13.84;61.27;100998.00;4940282;28;45540;-80
2022/12/20 09:33:53;;;;;;;;;2.00;2.00;;;;;13.78;61.64;100991.94;4929101;28;45417;-77
2022/12/20 09:36:20;;;;;;;;;4.00;4.00;;;;;13.74;62.09;100991.13;4947233;28;47211;-77
2022/12/20 09:38:46;;;;;;;;;3.00;3.00;;;;;13.68;62.60;100989.44;4943809;28;45463;-77
2022/12/20 09:41:18;;;;;;;;;3.33;3.00;;;;;13.65;62.69;100994.72;4939079;28;45490;-78
2022/12/20 09:43:44;;;;;;;;;3.67;3.67;;;;;13.65;63.08;101001.78;4939923;28;45427;-78
2022/12/20 09:46:13;;;;;;;;;3.33;2.00;;;;;13.58;63.65;101006.31;4933857;28;47345;-78
2022/12/20 09:48:39;;;;;;;;;4.00;3.00;;;;;13.51;63.97;101007.25;4933522;28;45456;-79
2022/12/20 09:51:16;;;;;;;;;3.75;3.25;;;;;13.50;64.17;101001.97;4958449;28;45396;-78
2022/12/20 09:54:03;;;;;;;;;4.50;2.50;;;;;13.43;64.71;100996.75;4930661;28;45308;-78
2022/12/20 09:56:57;;;;;;;;;6.00;5.00;;;;;13.34;65.03;100985.41;4943474;28;45505;-78
2022/12/20 09:59:23;;;;;;;;;1.67;1.67;;;;;13.32;65.58;101003.06;4924437;28;45357;-78
2022/12/20 10:01:49;;;;;;;;;4.00;3.00;;;;;13.25;66.22;100992.50;4936870;28;45278;-78
2022/12/20 10:04:19;;;;;;;;;8.25;8.25;;;;;13.26;66.03;100990.78;4936256;28;45437;-78
2022/12/20 10:06:50;;;;;;;;;3.00;3.00;;;;;13.24;66.36;100984.59;4937228;28;47225;-78
2022/12/20 10:09:34;;;;;;;;;6.75;6.50;;;;;13.16;66.57;100982.03;4949464;28;45339;-78
2022/12/20 10:12:11;;;;;;;;;3.00;3.00;;;;;13.21;66.73;100988.16;4937166;28;45226;-79
2022/12/20 10:14:56;;;;;;;;;3.67;3.00;;;;;13.20;67.08;100993.44;4924035;28;45489;-77
2022/12/20 10:17:48;;;;;;;;;3.00;3.00;;;;;13.15;67.38;100982.03;4935109;28;46229;-79
2022/12/20 10:20:22;;;;;;;;;3.50;3.50;;;;;13.13;67.66;100987.38;4939058;28;45686;-77
2022/12/20 10:22:52;;;;;;;;;4.00;3.00;;;;;13.15;67.70;100988.25;4942382;28;45191;-78
2022/12/20 10:25:23;;;;;;;;;4.75;3.00;;;;;13.10;67.63;100986.53;4952670;28;45446;-78
2022/12/20 10:27:53;;;;;;;;;5.00;4.00;;;;;13.09;67.88;100979.47;4934626;28;46925;-78
2022/12/20 10:30:25;;;;;;;;;4.00;3.33;;;;;13.10;68.17;100987.41;4930383;28;45395;-78
2022/12/20 10:32:52;;;;;;;;;4.00;4.00;;;;;13.13;68.24;100991.78;4930415;28;45269;-78
2022/12/20 10:35:25;;;;;;;;;4.00;4.00;;;;;13.11;68.26;100989.16;4940483;28;46626;-78
2022/12/20 10:38:06;;;;;;;;;3.33;3.33;;;;;13.09;68.41;100974.19;4929717;28;45302;-78
2022/12/20 10:40:35;;;;;;;;;3.00;3.00;;;;;13.10;68.25;100971.53;4954460;28;45484;-78
2022/12/20 10:43:02;;;;;;;;;4.00;4.00;;;;;13.11;68.79;100967.13;4936451;28;45356;-78
2022/12/20 10:45:37;;;;;;;;;3.25;2.50;;;;;13.14;68.50;100982.94;4933802;28;45534;-78
2022/12/20 10:48:06;;;;;;;;;3.00;2.00;;;;;13.17;68.64;100982.91;4922464;28;48289;-79
2022/12/20 10:50:32;;;;;;;;;3.50;3.50;;;;;13.10;68.83;100963.63;4922609;28;45784;-79
2022/12/20 10:53:06;;;;;;;;;5.00;5.00;;;;;13.17;68.70;100970.56;4941563;28;45301;-78
2022/12/20 10:55:33;;;;;;;;;4.00;4.00;;;;;13.16;68.53;100967.97;4939968;28;45423;-78
2022/12/20 10:58:24;;;;;;;;;3.00;3.00;;;;;13.15;68.63;100971.47;4941889;28;47242;-78
2022/12/20 11:00:49;;;;;;;;;4.25;3.00;;;;;13.08;68.96;100967.16;4941969;28;45352;-78
2022/12/20 11:03:18;;;;;;;;;4.00;3.00;;;;;13.14;69.02;100973.25;4943083;28;45396;-78
2022/12/20 11:05:58;;;;;;;;;4.00;4.00;;;;;13.17;69.53;100969.69;4942714;28;45265;-78
2022/12/20 11:08:26;;;;;;;;;7.33;4.00;;;;;13.20;69.21;100970.56;4940533;28;47286;-79
2022/12/20 11:11:15;;;;;;;;;4.00;3.00;;;;;13.16;69.27;100968.81;4949487;28;45486;-78
2022/12/20 11:13:41;;;;;;;;;5.67;5.67;;;;;13.20;69.09;100961.72;4950681;28;45329;-78
2022/12/20 11:16:23;;;;;;;;;4.67;4.67;;;;;13.19;69.15;100957.34;4930544;28;45919;-78
2022/12/20 11:19:23;;;;;;;;;4.67;4.67;;;;;13.25;69.03;100971.34;4924213;28;46394;-78
2022/12/20 11:22:18;;;;;;;;;3.50;3.50;;;;;13.24;69.05;100963.47;4921481;28;45393;-78
2022/12/20 11:25:16;;;;;;;;;4.67;4.67;;;;;13.22;69.34;100967.88;4950581;28;45447;-78
2022/12/20 11:28:00;;;;;;;;;3.00;3.00;;;;;13.26;69.60;100964.34;4932805;28;45572;-78
2022/12/20 11:30:55;;;;;;;;;4.00;4.00;;;;;13.23;69.40;100954.66;4941983;28;45411;-78
2022/12/20 11:33:36;;;;;;;;;6.50;3.00;;;;;13.28;69.56;100956.38;4936717;28;45293;-79
2022/12/20 11:36:10;;;;;;;;;3.00;3.00;;;;;13.28;69.19;100953.75;4937500;28;45275;-78
2022/12/20 11:39:04;;;;;;;;;6.25;5.00;;;;;13.24;69.30;100945.81;4934019;28;45192;-79
2022/12/20 11:41:54;;;;;;;;;6.75;6.00;;;;;13.27;69.36;100936.16;4940437;28;45440;-78